sensor_id;sensor_type;location;lat;lon;timestamp;temperature;humidity
15013;DHT22;7603;49.432;11.418;2023-04-01T00:00:28;7.20;99.90
15013;DHT22;7603;49.432;11.418;2023-04-01T00:02:54;7.20;99.90
15013;DHT22;7603;49.432;11.418;2023-04-01T00:05:20;7.30;99.90
15013;DHT22;7603;49.432;11.418;2023-04-01T00:07:46;7.30;99.90
15013;DHT22;7603;49.432;11.418;2023-04-01T00:10:13;7.30;99.90
15013;DHT22;7603;49.432;11.418;2023-04-01T00:12:39;7.40;99.90
15013;DHT22;7603;49.432;11.418;2023-04-01T00:15:06;7.40;99.90
15013;DHT22;7603;49.432;11.418;2023-04-01T00:17:32;7.50;99.90
15013;DHT22;7603;49.432;11.418;2023-04-01T00:19:58;7.50;99.90
15013;DHT22;7603;49.432;11.418;2023-04-01T00:22:24;7.50;99.90
15013;DHT22;7603;49.432;11.418;2023-04-01T00:24:50;7.60;99.90
15013;DHT22;7603;49.432;11.418;2023-04-01T00:27:16;7.60;99.90
15013;DHT22;7603;49.432;11.418;2023-04-01T00:29:43;7.60;99.90
15013;DHT22;7603;49.432;11.418;2023-04-01T00:32:09;7.60;99.90
15013;DHT22;7603;49.432;11.418;2023-04-01T00:34:34;7.70;99.90
15013;DHT22;7603;49.432;11.418;2023-04-01T00:37:00;7.70;99.90
15013;DHT22;7603;49.432;11.418;2023-04-01T00:39:29;7.70;99.90
15013;DHT22;7603;49.432;11.418;2023-04-01T00:41:54;7.70;99.90
15013;DHT22;7603;49.432;11.418;2023-04-01T00:44:29;7.80;99.90
15013;DHT22;7603;49.432;11.418;2023-04-01T00:46:55;7.80;99.90
15013;DHT22;7603;49.432;11.418;2023-04-01T00:49:38;7.80;99.90
15013;DHT22;7603;49.432;11.418;2023-04-01T00:52:07;7.80;99.90
15013;DHT22;7603;49.432;11.418;2023-04-01T00:54:34;7.80;99.90
15013;DHT22;7603;49.432;11.418;2023-04-01T00:57:18;7.80;99.90
15013;DHT22;7603;49.432;11.418;2023-04-01T00:59:48;7.80;99.90
15013;DHT22;7603;49.432;11.418;2023-04-01T01:02:15;7.90;99.90
15013;DHT22;7603;49.432;11.418;2023-04-01T01:04:42;7.90;99.90
15013;DHT22;7603;49.432;11.418;2023-04-01T01:10:43;8.00;99.90
15013;DHT22;7603;49.432;11.418;2023-04-01T01:18:44;8.10;99.90
15013;DHT22;7603;49.432;11.418;2023-04-01T01:26:58;8.00;99.90
15013;DHT22;7603;49.432;11.418;2023-04-01T01:35:33;8.10;99.90
15013;DHT22;7603;49.432;11.418;2023-04-01T01:38:23;8.10;99.90
15013;DHT22;7603;49.432;11.418;2023-04-01T01:40:51;8.10;99.90
15013;DHT22;7603;49.432;11.418;2023-04-01T01:43:23;8.10;99.90
15013;DHT22;7603;49.432;11.418;2023-04-01T01:45:55;8.10;99.90
15013;DHT22;7603;49.432;11.418;2023-04-01T01:48:23;8.10;99.90
15013;DHT22;7603;49.432;11.418;2023-04-01T01:50:50;8.10;99.90
15013;DHT22;7603;49.432;11.418;2023-04-01T01:53:16;8.10;99.90
15013;DHT22;7603;49.432;11.418;2023-04-01T01:55:44;8.10;99.90
15013;DHT22;7603;49.432;11.418;2023-04-01T01:58:43;8.30;99.90
15013;DHT22;7603;49.432;11.418;2023-04-01T02:01:20;8.20;99.90
15013;DHT22;7603;49.432;11.418;2023-04-01T02:03:48;8.20;99.90
15013;DHT22;7603;49.432;11.418;2023-04-01T02:06:18;8.20;99.90
15013;DHT22;7603;49.432;11.418;2023-04-01T02:08:51;8.20;99.90
15013;DHT22;7603;49.432;11.418;2023-04-01T02:14:03;8.20;99.90
15013;DHT22;7603;49.432;11.418;2023-04-01T02:19:07;8.20;99.90
15013;DHT22;7603;49.432;11.418;2023-04-01T02:21:34;8.20;99.90
15013;DHT22;7603;49.432;11.418;2023-04-01T02:24:02;8.30;99.90
15013;DHT22;7603;49.432;11.418;2023-04-01T02:26:29;8.20;99.90
15013;DHT22;7603;49.432;11.418;2023-04-01T02:28:57;8.20;99.90
15013;DHT22;7603;49.432;11.418;2023-04-01T02:31:23;8.20;99.90
15013;DHT22;7603;49.432;11.418;2023-04-01T02:33:50;8.20;99.90
15013;DHT22;7603;49.432;11.418;2023-04-01T02:36:16;8.20;99.90
15013;DHT22;7603;49.432;11.418;2023-04-01T02:38:43;8.20;99.90
15013;DHT22;7603;49.432;11.418;2023-04-01T02:41:10;8.20;99.90
15013;DHT22;7603;49.432;11.418;2023-04-01T02:43:35;8.20;99.90
15013;DHT22;7603;49.432;11.418;2023-04-01T02:46:01;8.30;99.90
15013;DHT22;7603;49.432;11.418;2023-04-01T02:48:27;8.30;99.90
15013;DHT22;7603;49.432;11.418;2023-04-01T02:50:53;8.30;99.90
15013;DHT22;7603;49.432;11.418;2023-04-01T02:53:19;8.30;99.90
15013;DHT22;7603;49.432;11.418;2023-04-01T02:55:44;8.30;99.90
15013;DHT22;7603;49.432;11.418;2023-04-01T02:58:10;8.30;99.90
15013;DHT22;7603;49.432;11.418;2023-04-01T03:00:36;8.30;99.90
15013;DHT22;7603;49.432;11.418;2023-04-01T03:03:02;8.30;99.90
15013;DHT22;7603;49.432;11.418;2023-04-01T03:05:28;8.30;99.90
15013;DHT22;7603;49.432;11.418;2023-04-01T03:07:54;8.30;99.90
15013;DHT22;7603;49.432;11.418;2023-04-01T03:10:19;8.30;99.90
15013;DHT22;7603;49.432;11.418;2023-04-01T03:12:45;8.30;99.90
15013;DHT22;7603;49.432;11.418;2023-04-01T03:15:12;8.30;99.90
15013;DHT22;7603;49.432;11.418;2023-04-01T03:17:40;8.30;99.90
15013;DHT22;7603;49.432;11.418;2023-04-01T03:20:06;8.30;99.90
15013;DHT22;7603;49.432;11.418;2023-04-01T03:22:34;8.30;99.90
15013;DHT22;7603;49.432;11.418;2023-04-01T03:25:00;8.30;99.90
15013;DHT22;7603;49.432;11.418;2023-04-01T03:27:26;8.30;99.90
15013;DHT22;7603;49.432;11.418;2023-04-01T03:29:52;8.30;99.90
15013;DHT22;7603;49.432;11.418;2023-04-01T03:32:17;8.30;99.90
15013;DHT22;7603;49.432;11.418;2023-04-01T03:34:43;8.30;99.90
15013;DHT22;7603;49.432;11.418;2023-04-01T03:37:08;8.30;99.90
15013;DHT22;7603;49.432;11.418;2023-04-01T03:39:34;8.30;99.90
15013;DHT22;7603;49.432;11.418;2023-04-01T03:42:00;8.30;99.90
15013;DHT22;7603;49.432;11.418;2023-04-01T03:44:29;8.30;99.90
15013;DHT22;7603;49.432;11.418;2023-04-01T03:46:55;8.30;99.90
15013;DHT22;7603;49.432;11.418;2023-04-01T03:49:21;8.30;99.90
15013;DHT22;7603;49.432;11.418;2023-04-01T03:51:46;8.30;99.90
15013;DHT22;7603;49.432;11.418;2023-04-01T03:54:12;8.30;99.90
15013;DHT22;7603;49.432;11.418;2023-04-01T03:56:37;8.30;99.90
15013;DHT22;7603;49.432;11.418;2023-04-01T03:59:05;8.30;99.90
15013;DHT22;7603;49.432;11.418;2023-04-01T04:01:31;8.30;99.90
15013;DHT22;7603;49.432;11.418;2023-04-01T04:03:57;8.30;99.90
15013;DHT22;7603;49.432;11.418;2023-04-01T04:06:23;8.30;99.90
15013;DHT22;7603;49.432;11.418;2023-04-01T04:08:49;8.30;99.90
15013;DHT22;7603;49.432;11.418;2023-04-01T04:11:16;8.30;99.90
15013;DHT22;7603;49.432;11.418;2023-04-01T04:13:42;8.30;99.90
15013;DHT22;7603;49.432;11.418;2023-04-01T04:16:08;8.30;99.90
15013;DHT22;7603;49.432;11.418;2023-04-01T04:18:35;8.30;99.90
15013;DHT22;7603;49.432;11.418;2023-04-01T04:21:01;8.30;99.90
15013;DHT22;7603;49.432;11.418;2023-04-01T04:23:26;8.20;99.90
15013;DHT22;7603;49.432;11.418;2023-04-01T04:26:05;8.30;99.90
15013;DHT22;7603;49.432;11.418;2023-04-01T04:28:31;8.30;99.90
15013;DHT22;7603;49.432;11.418;2023-04-01T04:30:56;8.30;99.90
15013;DHT22;7603;49.432;11.418;2023-04-01T04:33:23;8.30;99.90
15013;DHT22;7603;49.432;11.418;2023-04-01T04:35:49;8.30;99.90
15013;DHT22;7603;49.432;11.418;2023-04-01T04:38:14;8.30;99.90
15013;DHT22;7603;49.432;11.418;2023-04-01T04:40:41;8.20;99.90
15013;DHT22;7603;49.432;11.418;2023-04-01T04:43:11;8.30;99.90
15013;DHT22;7603;49.432;11.418;2023-04-01T04:45:37;8.30;99.90
15013;DHT22;7603;49.432;11.418;2023-04-01T04:48:03;8.40;99.90
15013;DHT22;7603;49.432;11.418;2023-04-01T04:50:28;8.30;99.90
15013;DHT22;7603;49.432;11.418;2023-04-01T04:52:54;8.20;99.90
15013;DHT22;7603;49.432;11.418;2023-04-01T04:55:20;8.20;99.90
15013;DHT22;7603;49.432;11.418;2023-04-01T04:57:46;8.20;99.90
15013;DHT22;7603;49.432;11.418;2023-04-01T05:00:12;8.20;99.90
15013;DHT22;7603;49.432;11.418;2023-04-01T05:02:37;8.20;99.90
15013;DHT22;7603;49.432;11.418;2023-04-01T05:05:03;8.20;99.90
15013;DHT22;7603;49.432;11.418;2023-04-01T05:07:29;8.20;99.90
15013;DHT22;7603;49.432;11.418;2023-04-01T05:09:55;8.20;99.90
15013;DHT22;7603;49.432;11.418;2023-04-01T05:12:21;8.30;99.90
15013;DHT22;7603;49.432;11.418;2023-04-01T05:14:46;8.30;99.90
15013;DHT22;7603;49.432;11.418;2023-04-01T05:17:12;8.20;99.90
15013;DHT22;7603;49.432;11.418;2023-04-01T05:19:38;8.30;99.90
15013;DHT22;7603;49.432;11.418;2023-04-01T05:22:05;8.30;99.90
15013;DHT22;7603;49.432;11.418;2023-04-01T05:24:31;8.30;99.90
15013;DHT22;7603;49.432;11.418;2023-04-01T05:26:57;8.30;99.90
15013;DHT22;7603;49.432;11.418;2023-04-01T05:29:23;8.30;99.90
15013;DHT22;7603;49.432;11.418;2023-04-01T05:31:49;8.30;99.90
15013;DHT22;7603;49.432;11.418;2023-04-01T05:34:15;8.30;99.90
15013;DHT22;7603;49.432;11.418;2023-04-01T05:36:42;8.30;99.90
15013;DHT22;7603;49.432;11.418;2023-04-01T05:39:07;8.40;99.90
15013;DHT22;7603;49.432;11.418;2023-04-01T05:41:35;8.40;99.90
15013;DHT22;7603;49.432;11.418;2023-04-01T05:44:01;8.40;99.90
15013;DHT22;7603;49.432;11.418;2023-04-01T05:46:27;8.50;99.90
15013;DHT22;7603;49.432;11.418;2023-04-01T05:48:53;8.50;99.90
15013;DHT22;7603;49.432;11.418;2023-04-01T05:51:19;8.50;99.90
15013;DHT22;7603;49.432;11.418;2023-04-01T05:53:44;8.60;99.90
15013;DHT22;7603;49.432;11.418;2023-04-01T05:56:10;8.50;99.90
15013;DHT22;7603;49.432;11.418;2023-04-01T05:58:36;8.60;99.90
15013;DHT22;7603;49.432;11.418;2023-04-01T06:01:04;8.60;99.90
15013;DHT22;7603;49.432;11.418;2023-04-01T06:03:30;8.70;99.90
15013;DHT22;7603;49.432;11.418;2023-04-01T06:05:56;8.70;99.90
15013;DHT22;7603;49.432;11.418;2023-04-01T06:08:21;8.70;99.90
15013;DHT22;7603;49.432;11.418;2023-04-01T06:16:49;8.80;99.90
15013;DHT22;7603;49.432;11.418;2023-04-01T06:27:42;9.00;99.90
15013;DHT22;7603;49.432;11.418;2023-04-01T06:30:44;9.00;99.90
15013;DHT22;7603;49.432;11.418;2023-04-01T06:36:40;9.00;99.90
15013;DHT22;7603;49.432;11.418;2023-04-01T06:42:32;9.20;99.90
15013;DHT22;7603;49.432;11.418;2023-04-01T06:45:54;9.30;99.90
15013;DHT22;7603;49.432;11.418;2023-04-01T06:55:42;9.30;99.90
15013;DHT22;7603;49.432;11.418;2023-04-01T06:58:20;9.30;99.90
15013;DHT22;7603;49.432;11.418;2023-04-01T07:00:49;9.30;99.90
15013;DHT22;7603;49.432;11.418;2023-04-01T07:03:30;9.40;99.90
15013;DHT22;7603;49.432;11.418;2023-04-01T07:06:05;9.40;99.90
15013;DHT22;7603;49.432;11.418;2023-04-01T07:08:35;9.50;99.90
15013;DHT22;7603;49.432;11.418;2023-04-01T07:11:05;9.60;99.90
15013;DHT22;7603;49.432;11.418;2023-04-01T07:16:18;9.70;99.90
15013;DHT22;7603;49.432;11.418;2023-04-01T07:18:48;9.70;99.90
15013;DHT22;7603;49.432;11.418;2023-04-01T07:21:43;9.70;99.90
15013;DHT22;7603;49.432;11.418;2023-04-01T07:24:15;9.80;99.90
15013;DHT22;7603;49.432;11.418;2023-04-01T07:26:43;9.90;99.90
15013;DHT22;7603;49.432;11.418;2023-04-01T07:29:12;10.00;99.90
15013;DHT22;7603;49.432;11.418;2023-04-01T07:40:23;10.30;99.90
15013;DHT22;7603;49.432;11.418;2023-04-01T07:43:07;10.40;99.90
15013;DHT22;7603;49.432;11.418;2023-04-01T07:59:44;10.50;99.90
15013;DHT22;7603;49.432;11.418;2023-04-01T08:05:27;10.50;99.90
15013;DHT22;7603;49.432;11.418;2023-04-01T08:11:21;10.50;99.90
15013;DHT22;7603;49.432;11.418;2023-04-01T08:14:08;10.60;99.90
15013;DHT22;7603;49.432;11.418;2023-04-01T08:21:55;10.50;99.90
15013;DHT22;7603;49.432;11.418;2023-04-01T08:24:42;10.50;99.90
15013;DHT22;7603;49.432;11.418;2023-04-01T08:27:21;10.70;99.90
15013;DHT22;7603;49.432;11.418;2023-04-01T08:30:35;10.60;99.90
15013;DHT22;7603;49.432;11.418;2023-04-01T08:33:19;10.60;99.90
15013;DHT22;7603;49.432;11.418;2023-04-01T08:36:03;10.60;99.90
15013;DHT22;7603;49.432;11.418;2023-04-01T08:39:45;10.70;99.90
15013;DHT22;7603;49.432;11.418;2023-04-01T08:47:25;10.80;99.90
15013;DHT22;7603;49.432;11.418;2023-04-01T08:52:58;10.90;99.90
15013;DHT22;7603;49.432;11.418;2023-04-01T09:01:20;10.90;99.90
15013;DHT22;7603;49.432;11.418;2023-04-01T09:06:57;10.90;99.90
15013;DHT22;7603;49.432;11.418;2023-04-01T09:26:34;11.10;99.90
15013;DHT22;7603;49.432;11.418;2023-04-01T09:38:19;10.40;99.90
15013;DHT22;7603;49.432;11.418;2023-04-01T09:40:55;10.30;99.90
15013;DHT22;7603;49.432;11.418;2023-04-01T09:43:26;10.30;99.90
15013;DHT22;7603;49.432;11.418;2023-04-01T09:48:55;10.40;99.90
15013;DHT22;7603;49.432;11.418;2023-04-01T09:51:39;10.40;99.90
15013;DHT22;7603;49.432;11.418;2023-04-01T09:54:29;10.60;99.90
15013;DHT22;7603;49.432;11.418;2023-04-01T09:59:57;10.60;99.90
15013;DHT22;7603;49.432;11.418;2023-04-01T10:36:14;11.60;99.90
15013;DHT22;7603;49.432;11.418;2023-04-01T10:44:56;10.70;99.90
15013;DHT22;7603;49.432;11.418;2023-04-01T10:47:47;10.50;99.90
15013;DHT22;7603;49.432;11.418;2023-04-01T11:04:34;9.90;99.90
15013;DHT22;7603;49.432;11.418;2023-04-01T11:16:00;10.20;99.90
15013;DHT22;7603;49.432;11.418;2023-04-01T11:26:59;9.80;99.90
15013;DHT22;7603;49.432;11.418;2023-04-01T11:29:46;9.60;99.90
15013;DHT22;7603;49.432;11.418;2023-04-01T11:35:32;9.50;99.90
15013;DHT22;7603;49.432;11.418;2023-04-01T11:51:12;9.60;99.90
15013;DHT22;7603;49.432;11.418;2023-04-01T11:53:52;9.60;99.90
15013;DHT22;7603;49.432;11.418;2023-04-01T12:04:54;9.70;99.90
15013;DHT22;7603;49.432;11.418;2023-04-01T12:07:50;9.70;99.90
15013;DHT22;7603;49.432;11.418;2023-04-01T12:10:21;9.80;99.90
15013;DHT22;7603;49.432;11.418;2023-04-01T12:20:50;9.60;99.90
15013;DHT22;7603;49.432;11.418;2023-04-01T12:26:47;9.50;99.90
15013;DHT22;7603;49.432;11.418;2023-04-01T12:29:34;9.50;99.90
15013;DHT22;7603;49.432;11.418;2023-04-01T12:40:44;9.30;99.90
15013;DHT22;7603;49.432;11.418;2023-04-01T12:46:40;9.50;99.90
15013;DHT22;7603;49.432;11.418;2023-04-01T12:49:17;9.60;99.90
15013;DHT22;7603;49.432;11.418;2023-04-01T12:59:55;9.50;99.90
15013;DHT22;7603;49.432;11.418;2023-04-01T13:14:23;9.20;99.90
15013;DHT22;7603;49.432;11.418;2023-04-01T13:17:22;9.10;99.90
15013;DHT22;7603;49.432;11.418;2023-04-01T13:20:02;9.00;99.90
15013;DHT22;7603;49.432;11.418;2023-04-01T13:22:59;9.00;99.90
15013;DHT22;7603;49.432;11.418;2023-04-01T13:28:30;8.80;99.90
15013;DHT22;7603;49.432;11.418;2023-04-01T13:37:09;8.90;99.90
15013;DHT22;7603;49.432;11.418;2023-04-01T13:40:00;8.90;99.90
15013;DHT22;7603;49.432;11.418;2023-04-01T13:42:39;8.90;99.90
15013;DHT22;7603;49.432;11.418;2023-04-01T13:55:49;8.80;99.90
15013;DHT22;7603;49.432;11.418;2023-04-01T14:04:39;8.90;99.90
15013;DHT22;7603;49.432;11.418;2023-04-01T14:07:15;8.90;99.90
15013;DHT22;7603;49.432;11.418;2023-04-01T14:21:52;9.20;99.90
15013;DHT22;7603;49.432;11.418;2023-04-01T14:29:54;9.10;99.90
15013;DHT22;7603;49.432;11.418;2023-04-01T14:35:06;9.10;99.90
15013;DHT22;7603;49.432;11.418;2023-04-01T14:43:20;9.00;99.90
15013;DHT22;7603;49.432;11.418;2023-04-01T14:48:51;9.00;99.90
15013;DHT22;7603;49.432;11.418;2023-04-01T14:54:14;9.00;99.90
15013;DHT22;7603;49.432;11.418;2023-04-01T14:57:23;8.90;99.90
15013;DHT22;7603;49.432;11.418;2023-04-01T14:59:51;8.90;99.90
15013;DHT22;7603;49.432;11.418;2023-04-01T15:24:59;8.80;99.90
15013;DHT22;7603;49.432;11.418;2023-04-01T15:30:21;8.70;99.90
15013;DHT22;7603;49.432;11.418;2023-04-01T15:33:10;8.60;99.90
15013;DHT22;7603;49.432;11.418;2023-04-01T15:38:31;8.60;99.90
15013;DHT22;7603;49.432;11.418;2023-04-01T15:41:22;8.60;99.90
15013;DHT22;7603;49.432;11.418;2023-04-01T15:43:47;8.50;99.90
15013;DHT22;7603;49.432;11.418;2023-04-01T15:46:44;8.50;99.90
15013;DHT22;7603;49.432;11.418;2023-04-01T16:02:51;8.60;99.90
15013;DHT22;7603;49.432;11.418;2023-04-01T16:05:42;8.60;99.90
15013;DHT22;7603;49.432;11.418;2023-04-01T16:11:28;8.70;99.90
15013;DHT22;7603;49.432;11.418;2023-04-01T16:22:00;8.60;99.90
15013;DHT22;7603;49.432;11.418;2023-04-01T16:24:48;8.60;99.90
15013;DHT22;7603;49.432;11.418;2023-04-01T16:27:36;8.60;99.90
15013;DHT22;7603;49.432;11.418;2023-04-01T16:30:38;8.60;99.90
15013;DHT22;7603;49.432;11.418;2023-04-01T16:33:23;8.50;99.90
15013;DHT22;7603;49.432;11.418;2023-04-01T16:36:24;8.50;99.90
15013;DHT22;7603;49.432;11.418;2023-04-01T16:41:31;8.40;99.90
15013;DHT22;7603;49.432;11.418;2023-04-01T16:46:43;8.40;99.90
15013;DHT22;7603;49.432;11.418;2023-04-01T16:59:35;8.20;99.90
15013;DHT22;7603;49.432;11.418;2023-04-01T17:02:18;8.20;99.90
15013;DHT22;7603;49.432;11.418;2023-04-01T17:04:57;8.20;99.90
15013;DHT22;7603;49.432;11.418;2023-04-01T17:07:47;8.10;99.90
15013;DHT22;7603;49.432;11.418;2023-04-01T17:10:28;8.10;99.90
15013;DHT22;7603;49.432;11.418;2023-04-01T17:21:47;8.00;99.90
15013;DHT22;7603;49.432;11.418;2023-04-01T17:33:36;8.00;99.90
15013;DHT22;7603;49.432;11.418;2023-04-01T17:44:24;7.80;99.90
15013;DHT22;7603;49.432;11.418;2023-04-01T17:58:27;7.80;99.90
15013;DHT22;7603;49.432;11.418;2023-04-01T18:00:46;7.80;99.90
15013;DHT22;7603;49.432;11.418;2023-04-01T18:22:41;7.80;99.90
15013;DHT22;7603;49.432;11.418;2023-04-01T18:25:22;7.80;99.90
15013;DHT22;7603;49.432;11.418;2023-04-01T18:30:36;7.80;99.90
15013;DHT22;7603;49.432;11.418;2023-04-01T18:33:49;7.80;99.90
15013;DHT22;7603;49.432;11.418;2023-04-01T18:39:07;7.80;99.90
15013;DHT22;7603;49.432;11.418;2023-04-01T18:52:42;7.90;99.90
15013;DHT22;7603;49.432;11.418;2023-04-01T18:57:46;7.90;99.90
15013;DHT22;7603;49.432;11.418;2023-04-01T19:00:20;7.90;99.90
15013;DHT22;7603;49.432;11.418;2023-04-01T19:03:03;7.90;99.90
15013;DHT22;7603;49.432;11.418;2023-04-01T19:05:39;7.90;99.90
15013;DHT22;7603;49.432;11.418;2023-04-01T19:08:31;7.90;99.90
15013;DHT22;7603;49.432;11.418;2023-04-01T19:11:37;7.90;99.90
15013;DHT22;7603;49.432;11.418;2023-04-01T19:14:15;7.90;99.90
15013;DHT22;7603;49.432;11.418;2023-04-01T19:17:04;8.00;99.90
15013;DHT22;7603;49.432;11.418;2023-04-01T19:20:05;8.00;99.90
15013;DHT22;7603;49.432;11.418;2023-04-01T19:23:01;8.00;99.90
15013;DHT22;7603;49.432;11.418;2023-04-01T19:25:41;8.00;99.90
15013;DHT22;7603;49.432;11.418;2023-04-01T19:30:57;8.00;99.90
15013;DHT22;7603;49.432;11.418;2023-04-01T19:39:09;8.10;99.90
15013;DHT22;7603;49.432;11.418;2023-04-01T19:42:17;8.10;99.90
15013;DHT22;7603;49.432;11.418;2023-04-01T19:49:59;8.10;99.90
15013;DHT22;7603;49.432;11.418;2023-04-01T19:52:32;8.10;99.90
15013;DHT22;7603;49.432;11.418;2023-04-01T19:55:02;8.10;99.90
15013;DHT22;7603;49.432;11.418;2023-04-01T19:57:46;8.10;99.90
15013;DHT22;7603;49.432;11.418;2023-04-01T20:02:55;8.10;99.90
15013;DHT22;7603;49.432;11.418;2023-04-01T20:05:42;8.10;99.90
15013;DHT22;7603;49.432;11.418;2023-04-01T20:08:21;8.10;99.90
15013;DHT22;7603;49.432;11.418;2023-04-01T20:17:01;8.10;99.90
15013;DHT22;7603;49.432;11.418;2023-04-01T20:19:36;8.20;99.90
15013;DHT22;7603;49.432;11.418;2023-04-01T20:22:10;8.10;99.90
15013;DHT22;7603;49.432;11.418;2023-04-01T20:24:46;8.10;99.90
15013;DHT22;7603;49.432;11.418;2023-04-01T20:27:19;8.10;99.90
15013;DHT22;7603;49.432;11.418;2023-04-01T20:35:30;8.10;99.90
15013;DHT22;7603;49.432;11.418;2023-04-01T20:38:06;8.00;99.90
15013;DHT22;7603;49.432;11.418;2023-04-01T20:43:53;8.00;99.90
15013;DHT22;7603;49.432;11.418;2023-04-01T20:49:39;8.00;99.90
15013;DHT22;7603;49.432;11.418;2023-04-01T20:54:58;8.00;99.90
15013;DHT22;7603;49.432;11.418;2023-04-01T20:57:36;8.00;99.90
15013;DHT22;7603;49.432;11.418;2023-04-01T21:02:57;8.00;99.90
15013;DHT22;7603;49.432;11.418;2023-04-01T21:08:44;8.00;99.90
15013;DHT22;7603;49.432;11.418;2023-04-01T21:22:55;8.10;99.90
15013;DHT22;7603;49.432;11.418;2023-04-01T21:28:11;8.00;99.90
15013;DHT22;7603;49.432;11.418;2023-04-01T21:50:14;8.10;99.90
15013;DHT22;7603;49.432;11.418;2023-04-01T21:55:36;8.00;99.90
15013;DHT22;7603;49.432;11.418;2023-04-01T22:01:29;8.10;99.90
15013;DHT22;7603;49.432;11.418;2023-04-01T22:06:59;8.10;99.90
15013;DHT22;7603;49.432;11.418;2023-04-01T22:28:29;8.10;99.90
15013;DHT22;7603;49.432;11.418;2023-04-01T22:31:01;8.10;99.90
15013;DHT22;7603;49.432;11.418;2023-04-01T22:43:54;8.00;99.90
15013;DHT22;7603;49.432;11.418;2023-04-01T22:49:11;7.90;99.90
15013;DHT22;7603;49.432;11.418;2023-04-01T22:54:41;7.90;99.90
15013;DHT22;7603;49.432;11.418;2023-04-01T22:57:32;7.90;99.90
15013;DHT22;7603;49.432;11.418;2023-04-01T23:00:05;7.90;99.90
15013;DHT22;7603;49.432;11.418;2023-04-01T23:05:28;7.90;99.90
15013;DHT22;7603;49.432;11.418;2023-04-01T23:10:57;7.90;99.90
15013;DHT22;7603;49.432;11.418;2023-04-01T23:14:14;7.90;99.90
15013;DHT22;7603;49.432;11.418;2023-04-01T23:16:26;7.90;99.90
15013;DHT22;7603;49.432;11.418;2023-04-01T23:19:02;7.90;99.90
15013;DHT22;7603;49.432;11.418;2023-04-01T23:27:05;7.90;99.90
15013;DHT22;7603;49.432;11.418;2023-04-01T23:29:36;7.90;99.90
15013;DHT22;7603;49.432;11.418;2023-04-01T23:32:05;7.90;99.90
15013;DHT22;7603;49.432;11.418;2023-04-01T23:34:38;7.90;99.90
15013;DHT22;7603;49.432;11.418;2023-04-01T23:37:12;7.80;99.90
15013;DHT22;7603;49.432;11.418;2023-04-01T23:39:40;7.80;99.90
15013;DHT22;7603;49.432;11.418;2023-04-01T23:42:29;7.80;99.90
15013;DHT22;7603;49.432;11.418;2023-04-01T23:45:11;7.80;99.90
15013;DHT22;7603;49.432;11.418;2023-04-01T23:47:39;7.80;99.90
15013;DHT22;7603;49.432;11.418;2023-04-01T23:50:18;7.70;99.90
15013;DHT22;7603;49.432;11.418;2023-04-01T23:52:53;7.80;99.90
15013;DHT22;7603;49.432;11.418;2023-04-01T23:55:33;7.80;99.90
